createdAt,value
2018-04-26T00:00:05.331Z,100873.30
2018-04-26T00:02:34.556Z,100871.02
2018-04-26T00:05:02.901Z,100869.53
2018-04-26T00:07:32.030Z,100868.31
2018-04-26T00:10:00.380Z,100863.91
2018-04-26T00:12:29.497Z,100860.54
2018-04-26T00:14:57.800Z,100869.38
2018-04-26T00:17:26.561Z,100862.53
2018-04-26T00:19:54.873Z,100860.86
2018-04-26T00:22:23.191Z,100859.91
2018-04-26T00:24:51.718Z,100852.00
2018-04-26T00:27:20.061Z,100859.74
2018-04-26T00:29:49.159Z,100864.33
2018-04-26T00:32:18.253Z,100857.37
2018-04-26T00:34:47.380Z,100856.41
2018-04-26T00:37:15.726Z,100853.70
2018-04-26T00:39:44.310Z,100855.04
2018-04-26T00:42:13.408Z,100865.17
2018-04-26T00:44:42.506Z,100858.93
2018-04-26T00:47:12.045Z,100853.72
2018-04-26T00:49:40.358Z,100860.14
2018-04-26T00:52:08.663Z,100848.34
2018-04-26T00:54:37.780Z,100850.44
2018-04-26T00:57:06.085Z,100845.12
2018-04-26T00:59:34.450Z,100841.98
2018-04-26T01:02:03.048Z,100840.55
2018-04-26T01:04:31.383Z,100842.45
2018-04-26T01:07:00.591Z,100838.73
2018-04-26T01:09:29.287Z,100840.27
2018-04-26T01:11:57.690Z,100832.41
2018-04-26T01:14:26.003Z,100828.62
2018-04-26T01:16:54.490Z,100831.16
2018-04-26T01:19:23.431Z,100828.75
2018-04-26T01:21:51.765Z,100830.14
2018-04-26T01:24:20.389Z,100825.84
2018-04-26T01:26:49.045Z,100822.06
2018-04-26T01:29:18.256Z,100823.81
2018-04-26T01:31:47.646Z,100819.78
2018-04-26T01:34:16.726Z,100804.62
2018-04-26T01:37:02.648Z,100802.05
2018-04-26T01:39:31.723Z,100809.47
2018-04-26T01:42:00.165Z,100810.90
2018-04-26T01:44:28.514Z,100809.41
2018-04-26T01:46:56.837Z,100811.08
2018-04-26T01:49:25.270Z,100819.05
2018-04-26T01:51:53.983Z,100875.88
2018-04-26T01:54:22.276Z,100878.80
2018-04-26T01:56:50.687Z,100880.80
2018-04-26T01:59:19.187Z,100883.22
2018-04-26T02:01:47.532Z,100845.92
2018-04-26T02:04:15.867Z,100858.07
2018-04-26T02:06:44.211Z,100853.84
2018-04-26T02:09:12.567Z,100846.70
2018-04-26T02:11:40.864Z,100838.22
2018-04-26T02:14:09.679Z,100825.75
2018-04-26T02:16:38.024Z,100819.73
2018-04-26T02:19:07.158Z,100811.61
2018-04-26T02:21:35.503Z,100812.28
2018-04-26T02:24:03.843Z,100816.59
2018-04-26T02:26:32.194Z,100821.23
2018-04-26T02:29:00.531Z,100817.66
2018-04-26T02:31:28.884Z,100822.59
2018-04-26T02:33:57.208Z,100819.23
2018-04-26T02:36:26.524Z,100817.19
2018-04-26T02:38:54.851Z,100807.61
2018-04-26T02:41:23.171Z,100804.00
2018-04-26T02:43:51.680Z,100811.44
2018-04-26T02:46:21.238Z,100795.67
2018-04-26T02:48:49.573Z,100788.97
2018-04-26T02:51:17.939Z,100788.99
2018-04-26T02:53:46.425Z,100780.00
2018-04-26T02:56:14.760Z,100785.39
2018-04-26T02:58:43.312Z,100782.55
2018-04-26T03:01:11.631Z,100788.09
2018-04-26T03:03:40.316Z,100782.37
2018-04-26T03:06:10.358Z,100788.25
2018-04-26T03:08:39.453Z,100779.14
2018-04-26T03:11:08.523Z,100774.03
2018-04-26T03:13:36.960Z,100791.47
2018-04-26T03:16:05.287Z,100787.63
2018-04-26T03:18:34.468Z,100778.81
2018-04-26T03:21:03.149Z,100785.49
2018-04-26T03:23:32.033Z,100800.45
2018-04-26T03:26:00.368Z,100818.80
2018-04-26T03:28:28.746Z,100832.85
2018-04-26T03:30:57.987Z,100815.45
2018-04-26T03:33:26.235Z,100806.39
2018-04-26T03:35:54.591Z,100799.06
2018-04-26T03:38:23.702Z,100801.11
2018-04-26T03:40:52.787Z,100790.95
2018-04-26T03:43:22.134Z,100789.77
2018-04-26T03:45:50.470Z,100785.47
2018-04-26T03:48:18.779Z,100782.66
2018-04-26T03:50:47.142Z,100793.92
2018-04-26T03:53:15.472Z,100790.86
2018-04-26T03:55:43.779Z,100781.64
2018-04-26T03:58:12.125Z,100787.91
2018-04-26T04:00:58.080Z,100788.44
2018-04-26T04:03:44.351Z,100784.61
2018-04-26T04:06:15.130Z,100784.19
2018-04-26T04:08:43.458Z,100775.33
2018-04-26T04:11:12.574Z,100787.78
2018-04-26T04:13:41.089Z,100781.66
2018-04-26T04:16:09.374Z,100781.52
2018-04-26T04:18:37.889Z,100778.45
2018-04-26T04:21:06.212Z,100783.09
2018-04-26T04:23:34.987Z,100790.63
2018-04-26T04:26:03.539Z,100786.28
2018-04-26T04:28:31.878Z,100787.32
2018-04-26T04:31:00.196Z,100797.09
2018-04-26T04:33:28.539Z,100793.41
2018-04-26T04:35:56.855Z,100795.03
2018-04-26T04:38:25.210Z,100793.06
2018-04-26T04:40:53.564Z,100798.46
2018-04-26T04:43:22.444Z,100795.49
2018-04-26T04:45:50.935Z,100790.95
2018-04-26T04:48:19.731Z,100800.64
2018-04-26T04:50:48.216Z,100802.56
2018-04-26T04:53:16.563Z,100800.69
2018-04-26T04:55:44.911Z,100801.91
2018-04-26T04:58:13.227Z,100800.93
2018-04-26T05:00:41.584Z,100802.86
2018-04-26T05:03:10.756Z,100807.95
2018-04-26T05:05:39.101Z,100808.22
2018-04-26T05:08:07.702Z,100817.00
2018-04-26T05:10:36.239Z,100818.33
2018-04-26T05:13:05.436Z,100815.91
2018-04-26T05:15:34.523Z,100813.31
2018-04-26T05:18:02.978Z,100806.52
2018-04-26T05:20:31.284Z,100815.44
2018-04-26T05:23:00.368Z,100817.69
2018-04-26T05:25:29.743Z,100824.30
2018-04-26T05:27:58.855Z,100828.31
2018-04-26T05:30:27.323Z,100826.39
2018-04-26T05:32:56.056Z,100822.12
2018-04-26T05:35:24.652Z,100832.66
2018-04-26T05:37:52.986Z,100834.83
2018-04-26T05:40:21.470Z,100830.81
2018-04-26T05:42:49.802Z,100835.44
2018-04-26T05:45:18.121Z,100842.52
2018-04-26T05:47:46.651Z,100840.02
2018-04-26T05:50:15.124Z,100846.80
2018-04-26T05:52:44.234Z,100845.00
2018-04-26T05:55:13.112Z,100853.92
2018-04-26T05:57:41.432Z,100854.83
2018-04-26T06:00:09.762Z,100855.41
2018-04-26T06:02:38.858Z,100848.17
2018-04-26T06:05:07.933Z,100847.34
2018-04-26T06:07:36.254Z,100851.91
2018-04-26T06:10:04.791Z,100852.81
2018-04-26T06:12:33.105Z,100855.41
2018-04-26T06:15:01.928Z,100857.20
2018-04-26T06:17:30.633Z,100859.84
2018-04-26T06:19:58.941Z,100865.66
2018-04-26T06:22:27.446Z,100871.09
2018-04-26T06:24:55.772Z,100863.53
2018-04-26T06:27:24.210Z,100865.81
2018-04-26T06:29:52.550Z,100863.39
2018-04-26T06:32:20.956Z,100867.91
2018-04-26T06:34:49.297Z,100867.65
2018-04-26T06:37:17.604Z,100875.44
2018-04-26T06:39:46.034Z,100874.00
2018-04-26T06:42:14.439Z,100870.41
2018-04-26T06:44:43.459Z,100875.09
2018-04-26T06:47:12.559Z,100870.87
2018-04-26T06:49:41.960Z,100879.66
2018-04-26T06:52:10.384Z,100880.97
2018-04-26T06:54:38.721Z,100885.20
2018-04-26T06:57:07.081Z,100891.65
2018-04-26T06:59:35.700Z,100889.50
2018-04-26T07:02:04.559Z,100886.23
2018-04-26T07:04:32.893Z,100893.78
2018-04-26T07:07:01.391Z,100883.79
2018-04-26T07:09:29.736Z,100889.55
2018-04-26T07:11:58.166Z,100894.13
2018-04-26T07:14:26.559Z,100901.48
2018-04-26T07:16:54.912Z,100893.32
2018-04-26T07:19:23.295Z,100899.95
2018-04-26T07:21:51.667Z,100897.48
2018-04-26T07:24:20.492Z,100902.81
2018-04-26T07:26:49.110Z,100904.06
2018-04-26T07:29:17.445Z,100907.09
2018-04-26T07:31:45.794Z,100911.83
2018-04-26T07:34:14.111Z,100913.55
2018-04-26T07:36:42.417Z,100909.34
2018-04-26T07:39:11.521Z,100905.94
2018-04-26T07:41:39.867Z,100914.33
2018-04-26T07:44:08.229Z,100916.38
2018-04-26T07:46:37.041Z,100920.77
2018-04-26T07:49:05.420Z,100922.83
2018-04-26T07:51:34.518Z,100930.14
2018-04-26T07:54:02.884Z,100933.80
2018-04-26T07:56:31.992Z,100935.75
2018-04-26T07:59:00.302Z,100941.25
2018-04-26T08:01:28.702Z,100939.42
2018-04-26T08:03:56.976Z,100932.89
2018-04-26T08:06:25.277Z,100946.70
2018-04-26T08:08:53.795Z,100943.28
2018-04-26T08:11:22.119Z,100949.93
2018-04-26T08:13:50.464Z,100952.07
2018-04-26T08:16:19.577Z,100951.73
2018-04-26T08:18:47.884Z,100955.39
2018-04-26T08:21:16.307Z,100954.84
2018-04-26T08:23:46.322Z,100961.64
2018-04-26T08:26:14.651Z,100960.80
2018-04-26T08:28:42.981Z,100970.06
2018-04-26T08:31:12.486Z,100968.53
2018-04-26T08:33:41.578Z,100962.20
2018-04-26T08:36:09.887Z,100967.44
2018-04-26T08:38:38.219Z,100967.92
2018-04-26T08:41:06.673Z,100972.75
2018-04-26T08:43:35.237Z,100977.67
2018-04-26T08:46:03.667Z,100975.87
2018-04-26T08:48:31.990Z,100981.40
2018-04-26T08:51:00.637Z,100985.14
2018-04-26T08:53:30.144Z,100977.61
2018-04-26T08:56:00.109Z,100988.52
2018-04-26T08:58:28.454Z,100989.69
2018-04-26T09:00:57.609Z,100983.97
2018-04-26T09:03:25.975Z,100995.91
2018-04-26T09:05:54.288Z,100995.19
2018-04-26T09:08:22.672Z,100997.92
2018-04-26T09:10:51.973Z,101005.24
2018-04-26T09:13:20.464Z,101010.08
2018-04-26T09:15:49.235Z,101012.12
2018-04-26T09:18:17.540Z,101013.02
2018-04-26T09:20:46.642Z,101020.66
2018-04-26T09:23:16.039Z,101011.91
2018-04-26T09:25:44.366Z,101015.16
2018-04-26T09:28:12.718Z,101019.95
2018-04-26T09:30:41.899Z,101018.62
2018-04-26T09:33:10.999Z,101016.50
2018-04-26T09:35:39.351Z,101011.38
2018-04-26T09:38:08.990Z,101010.88
2018-04-26T09:40:38.107Z,101009.85
2018-04-26T09:43:06.551Z,101010.73
2018-04-26T09:45:35.486Z,101010.97
2018-04-26T09:48:03.950Z,101008.19
2018-04-26T09:50:32.268Z,101008.06
2018-04-26T09:53:00.651Z,101011.38
2018-04-26T09:55:29.025Z,101001.89
2018-04-26T09:57:57.716Z,101014.92
2018-04-26T10:00:29.647Z,101017.98
2018-04-26T10:02:58.047Z,101018.09
2018-04-26T10:05:31.854Z,101009.05
2018-04-26T10:08:00.220Z,101011.90
2018-04-26T10:10:28.865Z,101014.05
2018-04-26T10:12:57.955Z,101017.93
2018-04-26T10:15:26.248Z,101013.72
2018-04-26T10:17:54.584Z,101016.83
2018-04-26T10:20:23.407Z,101015.34
2018-04-26T10:22:52.494Z,101022.69
2018-04-26T10:25:22.411Z,101028.16
2018-04-26T10:27:51.303Z,101021.78
2018-04-26T10:30:20.016Z,101028.08
2018-04-26T10:32:48.487Z,101028.11
2018-04-26T10:35:17.695Z,101033.47
2018-04-26T10:37:46.047Z,101026.33
2018-04-26T10:40:14.342Z,101033.11
2018-04-26T10:42:42.984Z,101033.98
2018-04-26T10:45:11.301Z,101026.05
2018-04-26T10:47:40.397Z,101019.97
2018-04-26T10:50:08.853Z,101035.77
2018-04-26T10:52:37.370Z,101035.75
2018-04-26T10:55:05.697Z,101034.91
2018-04-26T10:57:34.054Z,101036.66
2018-04-26T11:00:02.457Z,101032.22
2018-04-26T11:02:30.683Z,101037.09
2018-04-26T11:04:59.311Z,101039.19
2018-04-26T11:07:27.622Z,101058.47
2018-04-26T11:09:55.956Z,101029.06
2018-04-26T11:12:24.307Z,101037.47
2018-04-26T11:14:53.425Z,101041.91
2018-04-26T11:17:21.736Z,101036.42
2018-04-26T11:19:50.069Z,101034.77
2018-04-26T11:22:18.416Z,101038.62
2018-04-26T11:24:46.796Z,101039.52
2018-04-26T11:27:15.417Z,101038.77
2018-04-26T11:29:44.064Z,101054.94
2018-04-26T11:32:12.360Z,101054.86
2018-04-26T11:34:41.444Z,101064.20
2018-04-26T11:37:09.840Z,101083.77
2018-04-26T11:39:38.155Z,101084.73
2018-04-26T11:42:07.278Z,101082.95
2018-04-26T11:44:35.604Z,101079.29
2018-04-26T11:47:04.980Z,101073.63
2018-04-26T11:49:33.879Z,101074.67
2018-04-26T11:52:02.207Z,101092.11
2018-04-26T11:54:30.532Z,101096.77
2018-04-26T11:56:59.660Z,101102.65
2018-04-26T11:59:27.966Z,101093.86
2018-04-26T12:01:56.296Z,101084.03
2018-04-26T12:04:25.445Z,101089.31
2018-04-26T12:06:53.818Z,101094.92
2018-04-26T12:09:22.130Z,101108.72
2018-04-26T12:11:50.724Z,101108.75
2018-04-26T12:14:19.848Z,101115.72
2018-04-26T12:16:48.176Z,101120.94
2018-04-26T12:19:16.539Z,101121.05
2018-04-26T12:21:44.879Z,101126.28
2018-04-26T12:24:14.010Z,101119.19
2018-04-26T12:26:42.445Z,101120.02
2018-04-26T12:29:11.604Z,101119.03
2018-04-26T12:31:40.222Z,101119.42
2018-04-26T12:34:09.519Z,101121.91
2018-04-26T12:36:37.843Z,101121.29
2018-04-26T12:39:06.152Z,101115.92
2018-04-26T12:41:34.509Z,101119.80
2018-04-26T12:44:02.848Z,101098.17
2018-04-26T12:46:31.933Z,101109.77
2018-04-26T12:49:01.046Z,101113.27
2018-04-26T12:51:30.126Z,101117.80
2018-04-26T12:53:58.456Z,101117.20
2018-04-26T12:56:26.972Z,101119.16
2018-04-26T12:58:55.287Z,101120.04
2018-04-26T13:01:23.595Z,101119.52
2018-04-26T13:03:51.984Z,101132.48
2018-04-26T13:06:20.294Z,101133.59
2018-04-26T13:08:48.638Z,101129.16
2018-04-26T13:11:17.922Z,101157.50
2018-04-26T13:13:46.218Z,101177.34
2018-04-26T13:16:14.520Z,101177.27
2018-04-26T13:18:43.241Z,101167.83
2018-04-26T13:21:12.378Z,101178.56
2018-04-26T13:23:40.763Z,101185.05
2018-04-26T13:28:37.499Z,101180.88
2018-04-26T13:31:05.795Z,101170.20
2018-04-26T13:33:34.153Z,101181.34
2018-04-26T13:36:02.503Z,101175.75
2018-04-26T13:38:31.597Z,101175.96
2018-04-26T13:41:00.528Z,101171.00
2018-04-26T13:43:28.891Z,101167.25
2018-04-26T13:45:57.220Z,101167.75
2018-04-26T13:48:25.554Z,101164.46
2018-04-26T13:50:53.880Z,101183.69
2018-04-26T13:53:22.240Z,101178.27
2018-04-26T13:55:50.580Z,101196.08
2018-04-26T13:58:18.892Z,101216.78
2018-04-26T14:00:47.303Z,101212.39
2018-04-26T14:03:15.787Z,101218.27
2018-04-26T14:05:44.139Z,101208.23
2018-04-26T14:08:12.590Z,101211.27
2018-04-26T14:10:41.088Z,101206.17
2018-04-26T14:13:10.040Z,101192.13
2018-04-26T14:15:39.130Z,101186.84
2018-04-26T14:18:08.243Z,101195.51
2018-04-26T14:20:36.596Z,101194.66
2018-04-26T14:23:04.951Z,101187.52
2018-04-26T14:25:33.615Z,101171.53
2018-04-26T14:28:01.951Z,101179.67
2018-04-26T14:30:36.706Z,101183.31
2018-04-26T14:33:08.988Z,101192.52
2018-04-26T14:35:37.594Z,101179.73
2018-04-26T14:38:05.887Z,101187.48
2018-04-26T14:40:34.193Z,101187.13
2018-04-26T14:43:04.704Z,101192.71
2018-04-26T14:45:32.999Z,101187.98
2018-04-26T14:48:02.079Z,101193.20
2018-04-26T14:50:30.434Z,101195.56
2018-04-26T14:52:58.741Z,101198.63
2018-04-26T14:55:27.091Z,101191.70
2018-04-26T14:57:55.468Z,101189.51
2018-04-26T15:00:23.975Z,101187.94
2018-04-26T15:02:53.076Z,101177.86
2018-04-26T15:05:22.556Z,101180.70
2018-04-26T15:07:50.871Z,101168.38
2018-04-26T15:10:19.180Z,101179.27
2018-04-26T15:12:47.616Z,101175.30
2018-04-26T15:15:16.637Z,101177.61
2018-04-26T15:17:44.969Z,101175.03
2018-04-26T15:20:13.331Z,101181.62
2018-04-26T15:22:41.854Z,101182.70
2018-04-26T15:25:11.026Z,101185.53
2018-04-26T15:27:39.761Z,101179.64
2018-04-26T15:30:08.076Z,101169.23
2018-04-26T15:32:36.415Z,101171.85
2018-04-26T15:35:04.847Z,101171.05
2018-04-26T15:37:33.197Z,101173.83
2018-04-26T15:40:01.565Z,101179.09
2018-04-26T15:42:29.948Z,101187.88
2018-04-26T15:44:58.283Z,101180.86
2018-04-26T15:47:28.227Z,101186.48
2018-04-26T15:49:56.644Z,101182.59
2018-04-26T15:52:48.201Z,101182.20
2018-04-26T15:55:34.132Z,101171.95
2018-04-26T15:58:15.814Z,101148.08
2018-04-26T16:01:07.343Z,101158.36
2018-04-26T16:03:53.476Z,101170.38
2018-04-26T16:06:40.437Z,101174.37
2018-04-26T16:09:26.339Z,101186.06
2018-04-26T16:15:59.096Z,101203.48
2018-04-26T16:18:45.080Z,101220.77
2018-04-26T16:21:34.065Z,101229.12
2018-04-26T16:24:23.702Z,101238.73
2018-04-26T16:27:15.403Z,101257.52
2018-04-26T16:30:01.424Z,101258.13
2018-04-26T16:32:47.579Z,101275.92
2018-04-26T16:35:33.661Z,101270.38
2018-04-26T16:38:21.072Z,101268.22
2018-04-26T16:40:50.096Z,101256.23
2018-04-26T16:43:19.188Z,101254.16
2018-04-26T16:45:47.525Z,101249.89
2018-04-26T16:48:15.885Z,101253.64
2018-04-26T16:50:44.212Z,101239.94
2018-04-26T16:53:12.535Z,101229.27
2018-04-26T16:55:40.912Z,101227.27
2018-04-26T16:58:09.341Z,101212.73
2018-04-26T17:00:37.666Z,101214.47
2018-04-26T17:03:06.399Z,101213.11
2018-04-26T17:05:36.631Z,101217.69
2018-04-26T17:08:04.945Z,101216.89
2018-04-26T17:10:34.313Z,101213.84
2018-04-26T17:13:02.828Z,101227.66
2018-04-26T17:15:31.311Z,101226.70
2018-04-26T17:18:00.440Z,101236.92
2018-04-26T17:20:28.769Z,101238.70
2018-04-26T17:22:57.860Z,101238.30
2018-04-26T17:25:26.418Z,101245.82
2018-04-26T17:27:54.800Z,101247.06
2018-04-26T17:30:23.077Z,101257.32
2018-04-26T17:32:51.553Z,101246.70
2018-04-26T17:35:19.864Z,101244.81
2018-04-26T17:37:49.104Z,101258.42
2018-04-26T17:40:17.525Z,101258.56
2018-04-26T17:42:45.847Z,101259.94
2018-04-26T17:45:14.195Z,101256.56
2018-04-26T17:47:42.769Z,101264.56
2018-04-26T17:50:11.097Z,101269.22
2018-04-26T17:52:39.425Z,101267.65
2018-04-26T17:55:07.776Z,101265.28
2018-04-26T17:57:36.087Z,101276.64
2018-04-26T18:00:04.398Z,101284.31
2018-04-26T18:02:32.754Z,101286.55
2018-04-26T18:05:01.879Z,101293.59
2018-04-26T18:07:30.222Z,101286.96
2018-04-26T18:09:58.783Z,101291.68
2018-04-26T18:12:27.868Z,101290.33
2018-04-26T18:14:56.170Z,101290.97
2018-04-26T18:17:24.501Z,101296.52
2018-04-26T18:20:01.039Z,101296.95
2018-04-26T18:22:21.159Z,101304.53
2018-04-26T18:24:49.477Z,101305.80
2018-04-26T18:27:17.819Z,101302.83
2018-04-26T18:29:46.375Z,101302.16
2018-04-26T18:32:14.884Z,101304.45
2018-04-26T18:34:43.201Z,101305.57
2018-04-26T18:37:11.548Z,101307.23
2018-04-26T18:39:39.928Z,101308.94
2018-04-26T18:42:08.279Z,101317.41
2018-04-26T18:44:36.609Z,101315.69
2018-04-26T18:47:04.982Z,101322.76
2018-04-26T18:49:33.316Z,101323.90
2018-04-26T18:52:01.648Z,101321.72
2018-04-26T18:54:30.611Z,101337.95
2018-04-26T18:56:59.052Z,101334.31
2018-04-26T18:59:27.284Z,101339.23
2018-04-26T19:01:55.656Z,101340.58
2018-04-26T19:04:23.972Z,101355.66
2018-04-26T19:06:52.375Z,101357.31
2018-04-26T19:09:21.467Z,101365.77
2018-04-26T19:11:49.833Z,101369.83
2018-04-26T19:14:18.940Z,101375.38
2018-04-26T19:16:47.404Z,101389.04
2018-04-26T19:19:16.551Z,101391.83
2018-04-26T19:21:44.910Z,101386.30
2018-04-26T19:24:13.241Z,101389.04
2018-04-26T19:26:41.666Z,101392.64
2018-04-26T19:29:09.926Z,101391.47
2018-04-26T19:31:38.292Z,101388.88
2018-04-26T19:34:06.670Z,101386.92
2018-04-26T19:36:35.026Z,101395.91
2018-04-26T19:39:03.679Z,101390.94
2018-04-26T19:41:32.025Z,101397.26
2018-04-26T19:44:01.149Z,101398.42
2018-04-26T19:46:29.512Z,101398.02
2018-04-26T19:48:57.891Z,101402.22
2018-04-26T19:51:27.047Z,101390.84
2018-04-26T19:53:55.418Z,101389.47
2018-04-26T19:56:23.771Z,101389.28
2018-04-26T19:58:52.875Z,101385.66
2018-04-26T20:01:21.396Z,101386.92
2018-04-26T20:03:49.724Z,101386.81
2018-04-26T20:06:18.102Z,101389.77
2018-04-26T20:08:46.862Z,101391.80
2018-04-26T20:11:15.135Z,101389.07
2018-04-26T20:13:44.262Z,101399.21
2018-04-26T20:16:12.660Z,101391.83
2018-04-26T20:18:40.985Z,101399.50
2018-04-26T20:21:09.444Z,101389.85
2018-04-26T20:23:37.857Z,101399.95
2018-04-26T20:26:06.991Z,101396.25
2018-04-26T20:28:35.323Z,101399.59
2018-04-26T20:31:04.435Z,101399.95
2018-04-26T20:33:32.747Z,101398.61
2018-04-26T20:36:01.070Z,101396.48
2018-04-26T20:38:29.423Z,101399.66
2018-04-26T20:40:58.537Z,101399.99
2018-04-26T20:43:26.873Z,101397.16
2018-04-26T20:45:55.523Z,101393.56
2018-04-26T20:48:41.309Z,101395.89
2018-04-26T20:51:10.428Z,101399.02
2018-04-26T20:53:38.743Z,101397.91
2018-04-26T20:56:07.107Z,101400.69
2018-04-26T20:58:35.480Z,101400.76
2018-04-26T21:01:03.787Z,101399.55
2018-04-26T21:03:32.108Z,101393.31
2018-04-26T21:06:01.346Z,101400.09
2018-04-26T21:08:29.661Z,101401.38
2018-04-26T21:10:57.979Z,101397.39
2018-04-26T21:13:26.365Z,101389.94
2018-04-26T21:15:54.695Z,101393.19
2018-04-26T21:18:23.215Z,101393.33
2018-04-26T21:20:51.564Z,101394.16
2018-04-26T21:23:19.888Z,101401.02
2018-04-26T21:25:48.188Z,101402.23
2018-04-26T21:28:16.962Z,101404.88
2018-04-26T21:30:45.300Z,101396.77
2018-04-26T21:33:14.783Z,101401.98
2018-04-26T21:35:43.226Z,101392.23
2018-04-26T21:38:11.485Z,101395.00
2018-04-26T21:40:39.821Z,101399.08
2018-04-26T21:43:08.182Z,101390.02
2018-04-26T21:45:36.526Z,101391.38
2018-04-26T21:48:04.844Z,101388.59
2018-04-26T21:50:38.776Z,101390.80
2018-04-26T21:53:12.554Z,101399.36
2018-04-26T21:55:46.479Z,101394.28
2018-04-26T21:58:20.230Z,101399.41
2018-04-26T22:00:53.945Z,101396.06
2018-04-26T22:03:22.303Z,101396.98
2018-04-26T22:05:50.643Z,101397.17
2018-04-26T22:08:19.096Z,101403.09
2018-04-26T22:10:47.428Z,101409.30
2018-04-26T22:13:16.495Z,101407.73
2018-04-26T22:15:44.830Z,101413.09
2018-04-26T22:18:13.146Z,101409.34
2018-04-26T22:20:41.492Z,101413.59
2018-04-26T22:23:09.839Z,101410.30
2018-04-26T22:25:38.173Z,101412.17
2018-04-26T22:28:06.503Z,101416.31
2018-04-26T22:30:35.555Z,101413.36
2018-04-26T22:33:03.924Z,101418.23
2018-04-26T22:35:32.457Z,101414.93
2018-04-26T22:38:01.567Z,101413.50
2018-04-26T22:40:30.138Z,101417.06
2018-04-26T22:42:58.448Z,101406.82
2018-04-26T22:45:27.082Z,101416.16
2018-04-26T22:47:56.157Z,101422.70
2018-04-26T22:50:24.483Z,101418.42
2018-04-26T22:52:53.154Z,101419.72
2018-04-26T22:55:22.228Z,101416.28
2018-04-26T22:57:50.538Z,101417.61
2018-04-26T23:00:18.874Z,101417.12
2018-04-26T23:02:47.184Z,101407.70
2018-04-26T23:05:16.277Z,101402.76
2018-04-26T23:07:45.415Z,101411.72
2018-04-26T23:10:13.965Z,101411.34
2018-04-26T23:12:42.302Z,101411.52
2018-04-26T23:15:10.727Z,101411.82
2018-04-26T23:17:39.033Z,101414.61
2018-04-26T23:20:07.353Z,101413.05
2018-04-26T23:22:35.714Z,101413.41
2018-04-26T23:25:04.039Z,101407.61
2018-04-26T23:27:32.490Z,101406.02
2018-04-26T23:30:00.977Z,101408.36
2018-04-26T23:32:30.421Z,101407.61
2018-04-26T23:34:58.857Z,101406.42
2018-04-26T23:37:27.464Z,101406.69
2018-04-26T23:39:56.741Z,101406.65
2018-04-26T23:42:25.196Z,101408.09
2018-04-26T23:44:53.699Z,101403.99
2018-04-26T23:47:22.166Z,101409.92
2018-04-26T23:49:50.643Z,101411.37
2018-04-26T23:52:19.062Z,101416.87
2018-04-26T23:54:48.295Z,101414.16
2018-04-26T23:57:16.756Z,101414.38
2018-04-26T23:59:45.626Z,101411.73
